Time;durP1;ratioP1;P1;durP2;ratioP2;P2;SDS_P1;SDS_P2;PMS_P1;PMS_P2;Temp;Humidity;BMP_temperature;BMP_pressure;BME280_temperature;BME280_humidity;BME280_pressure;Samples;Min_cycle;Max_cycle;Signal;HPM_P1;HPM_P2
2021/07/16 00:01:24;;;;;;;6.13;3.42;;;;;;;;;;3580680;40;20292;-62
2021/07/16 00:03:50;;;;;;;5.55;3.05;;;;;;;;;;3581850;40;20265;-62
2021/07/16 00:06:16;;;;;;;17.20;3.20;;;;;;;;;;3583116;40;20051;-62
2021/07/16 00:08:42;;;;;;;6.32;3.17;;;;;;;;;;3584055;40;20069;-62
2021/07/16 00:11:07;;;;;;;6.40;2.97;;;;;;;;;;3583645;40;20032;-62
2021/07/16 00:13:33;;;;;;;4.80;2.70;;;;;;;;;;3583462;40;20546;-63
2021/07/16 00:15:58;;;;;;;4.22;2.95;;;;;;;;;;3582955;40;20455;-62
2021/07/16 00:18:24;;;;;;;7.95;3.35;;;;;;;;;;3582500;40;20387;-63
2021/07/16 00:20:50;;;;;;;4.43;3.15;;;;;;;;;;3583052;40;20048;-62
2021/07/16 00:23:15;;;;;;;6.30;2.58;;;;;;;;;;3580891;40;20041;-63
2021/07/16 00:25:41;;;;;;;6.15;2.88;;;;;;;;;;3582807;40;20071;-64
2021/07/16 00:28:07;;;;;;;5.40;2.60;;;;;;;;;;3583859;40;20057;-62
2021/07/16 00:30:32;;;;;;;12.07;2.67;;;;;;;;;;3584620;40;20045;-62
2021/07/16 00:32:58;;;;;;;4.22;2.42;;;;;;;;;;3582254;40;20037;-63
2021/07/16 00:35:23;;;;;;;4.03;2.20;;;;;;;;;;3582896;40;20040;-62
2021/07/16 00:37:49;;;;;;;4.30;2.33;;;;;;;;;;3583472;40;20052;-62
2021/07/16 00:40:15;;;;;;;7.20;2.60;;;;;;;;;;3577272;40;20065;-62
2021/07/16 00:42:41;;;;;;;5.13;2.53;;;;;;;;;;3582213;40;20040;-62
2021/07/16 00:45:09;;;;;;;3.88;2.28;;;;;;;;;;3580913;40;20034;-63
2021/07/16 00:47:35;;;;;;;7.28;2.97;;;;;;;;;;3584309;40;20346;-63
2021/07/16 00:50:01;;;;;;;6.35;2.42;;;;;;;;;;3584526;40;20032;-62
2021/07/16 00:52:26;;;;;;;8.00;2.75;;;;;;;;;;3583888;40;20033;-62
2021/07/16 00:54:53;;;;;;;7.07;2.90;;;;;;;;;;3582080;40;20029;-63
2021/07/16 00:57:18;;;;;;;4.25;2.17;;;;;;;;;;3585007;40;20043;-62
2021/07/16 00:59:44;;;;;;;4.15;3.00;;;;;;;;;;3583701;40;20850;-63
2021/07/16 01:02:12;;;;;;;4.25;2.72;;;;;;;;;;3585059;40;20282;-62
2021/07/16 01:04:37;;;;;;;10.93;3.20;;;;;;;;;;3583381;40;20056;-62
2021/07/16 01:07:04;;;;;;;5.43;2.95;;;;;;;;;;3581319;40;20032;-62
2021/07/16 01:09:29;;;;;;;6.13;2.83;;;;;;;;;;3582129;40;20047;-62
2021/07/16 01:11:55;;;;;;;8.00;2.72;;;;;;;;;;3584801;40;20029;-62
2021/07/16 01:14:21;;;;;;;4.30;2.60;;;;;;;;;;3580176;40;20041;-62
2021/07/16 01:16:47;;;;;;;8.90;2.78;;;;;;;;;;3581797;40;20110;-63
2021/07/16 01:19:22;;;;;;;9.68;3.72;;;;;;;;;;3581786;40;20060;-62
2021/07/16 01:21:50;;;;;;;10.27;2.90;;;;;;;;;;3575034;40;20044;-62
2021/07/16 01:24:16;;;;;;;4.03;2.80;;;;;;;;;;3583798;40;20153;-62
2021/07/16 01:26:42;;;;;;;4.07;2.80;;;;;;;;;;3584403;40;20064;-62
2021/07/16 01:29:10;;;;;;;5.18;2.58;;;;;;;;;;3584100;40;20090;-63
2021/07/16 01:31:36;;;;;;;6.30;3.42;;;;;;;;;;3577456;40;20340;-62
2021/07/16 01:34:02;;;;;;;10.90;2.90;;;;;;;;;;3582527;40;20035;-63
2021/07/16 01:36:28;;;;;;;4.70;2.85;;;;;;;;;;3584452;40;20032;-62
2021/07/16 01:38:54;;;;;;;5.88;2.90;;;;;;;;;;3582271;40;20131;-62
2021/07/16 01:41:19;;;;;;;5.40;2.58;;;;;;;;;;3582082;40;20029;-62
2021/07/16 01:43:45;;;;;;;5.75;3.30;;;;;;;;;;3581765;40;20161;-62
2021/07/16 01:46:10;;;;;;;8.73;2.92;;;;;;;;;;3584307;40;20025;-62
2021/07/16 01:48:36;;;;;;;8.63;2.78;;;;;;;;;;3583165;40;20029;-62
2021/07/16 01:51:01;;;;;;;6.32;3.00;;;;;;;;;;3580510;40;20044;-62
2021/07/16 01:53:27;;;;;;;14.73;3.38;;;;;;;;;;3582402;40;20036;-63
2021/07/16 01:55:52;;;;;;;4.00;2.90;;;;;;;;;;3584420;40;20040;-62
2021/07/16 01:58:18;;;;;;;4.60;3.25;;;;;;;;;;3582041;40;20357;-62
2021/07/16 02:00:46;;;;;;;5.68;3.70;;;;;;;;;;3582259;40;20059;-63
2021/07/16 02:03:15;;;;;;;8.48;3.72;;;;;;;;;;3581154;40;20029;-62
2021/07/16 02:05:42;;;;;;;6.03;3.40;;;;;;;;;;3582653;40;20040;-62
2021/07/16 02:08:18;;;;;;;10.80;4.50;;;;;;;;;;3582170;40;20036;-63
2021/07/16 02:10:47;;;;;;;5.88;4.20;;;;;;;;;;3575168;40;20119;-63
2021/07/16 02:13:13;;;;;;;5.55;4.03;;;;;;;;;;3581704;40;20427;-62
2021/07/16 02:15:41;;;;;;;6.07;3.78;;;;;;;;;;3582519;40;20045;-63
2021/07/16 02:18:06;;;;;;;12.57;4.95;;;;;;;;;;3578462;40;20398;-63
2021/07/16 02:20:35;;;;;;;8.35;4.60;;;;;;;;;;3582697;40;20044;-63
2021/07/16 02:23:07;;;;;;;9.20;4.63;;;;;;;;;;3582428;40;20039;-63
2021/07/16 02:25:33;;;;;;;9.38;3.85;;;;;;;;;;3583187;40;20025;-63
2021/07/16 02:28:01;;;;;;;5.88;4.03;;;;;;;;;;3582588;40;20032;-63
2021/07/16 02:30:27;;;;;;;6.18;4.05;;;;;;;;;;3581412;40;20301;-63
2021/07/16 02:32:56;;;;;;;7.03;3.67;;;;;;;;;;3583922;40;20044;-63
2021/07/16 02:35:22;;;;;;;5.85;3.78;;;;;;;;;;3578783;40;20047;-62
2021/07/16 02:37:47;;;;;;;12.52;3.95;;;;;;;;;;3583271;40;20427;-62
2021/07/16 02:40:14;;;;;;;7.25;3.85;;;;;;;;;;3580210;40;20033;-63
2021/07/16 02:42:41;;;;;;;8.18;3.83;;;;;;;;;;3580671;40;20049;-62
2021/07/16 02:45:12;;;;;;;7.35;4.78;;;;;;;;;;3581486;40;20025;-62
2021/07/16 02:47:38;;;;;;;12.27;4.03;;;;;;;;;;3581991;40;20380;-62
2021/07/16 02:50:10;;;;;;;7.70;4.45;;;;;;;;;;3583192;40;20060;-62
2021/07/16 02:52:36;;;;;;;6.55;4.38;;;;;;;;;;3581752;40;20052;-62
2021/07/16 02:55:02;;;;;;;9.43;4.35;;;;;;;;;;3583654;40;20028;-62
2021/07/16 02:57:27;;;;;;;5.90;4.10;;;;;;;;;;3581691;40;20343;-61
2021/07/16 02:59:53;;;;;;;10.93;3.60;;;;;;;;;;3585164;40;20028;-62
2021/07/16 03:02:18;;;;;;;11.15;3.83;;;;;;;;;;3583179;40;20033;-62
2021/07/16 03:04:46;;;;;;;8.25;4.43;;;;;;;;;;3584253;40;20202;-62
2021/07/16 03:07:12;;;;;;;5.80;3.72;;;;;;;;;;3577082;40;20045;-62
2021/07/16 03:09:38;;;;;;;5.75;3.60;;;;;;;;;;3575677;40;20028;-62
2021/07/16 03:12:04;;;;;;;5.53;4.03;;;;;;;;;;3582432;40;20040;-62
2021/07/16 03:14:30;;;;;;;7.30;4.55;;;;;;;;;;3583651;40;20025;-62
2021/07/16 03:16:56;;;;;;;7.38;4.20;;;;;;;;;;3581551;40;20052;-61
2021/07/16 03:19:21;;;;;;;6.82;3.75;;;;;;;;;;3582020;40;20322;-61
2021/07/16 03:21:47;;;;;;;8.35;3.72;;;;;;;;;;3582864;40;20029;-62
2021/07/16 03:24:14;;;;;;;8.60;3.45;;;;;;;;;;3581162;40;20443;-62
2021/07/16 03:26:40;;;;;;;7.22;4.72;;;;;;;;;;3584342;40;20361;-61
2021/07/16 03:29:05;;;;;;;10.93;3.55;;;;;;;;;;3581185;40;20040;-62
2021/07/16 03:31:31;;;;;;;10.40;3.72;;;;;;;;;;3584025;40;20040;-62
2021/07/16 03:33:56;;;;;;;7.95;4.22;;;;;;;;;;3583718;40;20033;-62
2021/07/16 03:36:22;;;;;;;5.95;4.15;;;;;;;;;;3583270;40;20533;-62
2021/07/16 03:38:51;;;;;;;5.55;3.70;;;;;;;;;;3584901;40;20044;-62
2021/07/16 03:41:16;;;;;;;8.90;4.20;;;;;;;;;;3582951;40;20080;-62
2021/07/16 03:43:42;;;;;;;8.38;4.30;;;;;;;;;;3585002;40;20041;-62
2021/07/16 03:46:07;;;;;;;5.50;3.85;;;;;;;;;;3584565;40;20076;-62
2021/07/16 03:48:33;;;;;;;11.50;4.68;;;;;;;;;;3582799;40;20452;-62
2021/07/16 03:50:58;;;;;;;7.38;4.38;;;;;;;;;;3581515;40;20053;-62
2021/07/16 03:53:24;;;;;;;6.38;3.90;;;;;;;;;;3583101;40;20046;-63
2021/07/16 03:55:50;;;;;;;6.20;3.67;;;;;;;;;;3584001;40;20376;-62
2021/07/16 03:58:15;;;;;;;5.60;3.85;;;;;;;;;;3584126;40;20037;-62
2021/07/16 04:00:41;;;;;;;6.15;3.83;;;;;;;;;;3582652;40;20041;-62
2021/07/16 04:03:06;;;;;;;5.80;4.00;;;;;;;;;;3582278;40;20029;-62
2021/07/16 04:05:33;;;;;;;5.40;4.07;;;;;;;;;;3582911;40;20055;-62
2021/07/16 04:08:04;;;;;;;5.85;3.65;;;;;;;;;;3583410;40;20037;-62
2021/07/16 04:10:31;;;;;;;3.92;3.30;;;;;;;;;;3583681;40;20091;-62
2021/07/16 04:12:59;;;;;;;4.68;3.40;;;;;;;;;;3581624;40;20037;-62
2021/07/16 04:15:26;;;;;;;5.95;4.07;;;;;;;;;;3581077;40;20041;-62
2021/07/16 04:17:55;;;;;;;5.13;3.47;;;;;;;;;;3584152;40;20422;-62
2021/07/16 04:20:21;;;;;;;6.30;3.72;;;;;;;;;;3583444;40;20047;-62
2021/07/16 04:22:46;;;;;;;6.78;4.00;;;;;;;;;;3583224;40;20096;-60
2021/07/16 04:25:16;;;;;;;8.45;4.65;;;;;;;;;;3582695;40;20039;-61
2021/07/16 04:27:42;;;;;;;6.33;4.43;;;;;;;;;;3580717;40;20040;-61
2021/07/16 04:30:10;;;;;;;6.57;5.50;;;;;;;;;;3582486;40;20262;-61
2021/07/16 04:32:37;;;;;;;6.43;4.93;;;;;;;;;;3582822;40;20435;-61
2021/07/16 04:35:03;;;;;;;6.78;4.82;;;;;;;;;;3583034;40;20065;-61
2021/07/16 04:37:29;;;;;;;10.52;5.00;;;;;;;;;;3582008;40;20134;-61
2021/07/16 04:39:54;;;;;;;8.90;5.20;;;;;;;;;;3583009;40;20037;-62
2021/07/16 04:42:21;;;;;;;6.70;4.47;;;;;;;;;;3584256;40;20073;-61
2021/07/16 04:44:47;;;;;;;7.10;4.30;;;;;;;;;;3582659;40;20055;-61
2021/07/16 04:47:13;;;;;;;11.57;4.00;;;;;;;;;;3583236;40;20024;-62
2021/07/16 04:49:39;;;;;;;7.68;3.80;;;;;;;;;;3584028;40;20053;-62
2021/07/16 04:52:04;;;;;;;7.57;4.32;;;;;;;;;;3583662;40;20153;-62
2021/07/16 04:54:30;;;;;;;5.28;4.10;;;;;;;;;;3582632;40;20126;-62
2021/07/16 04:56:56;;;;;;;12.00;4.32;;;;;;;;;;3581676;40;20061;-62
2021/07/16 04:59:21;;;;;;;8.10;4.25;;;;;;;;;;3583575;40;20178;-62
2021/07/16 05:01:48;;;;;;;7.18;4.05;;;;;;;;;;3583522;40;20129;-62
2021/07/16 05:04:15;;;;;;;8.10;4.88;;;;;;;;;;3583296;40;20033;-62
2021/07/16 05:06:40;;;;;;;6.03;4.60;;;;;;;;;;3581667;40;20146;-62
2021/07/16 05:09:06;;;;;;;6.20;5.20;;;;;;;;;;3582261;40;20342;-62
2021/07/16 05:11:32;;;;;;;7.50;5.03;;;;;;;;;;3583642;40;20437;-62
2021/07/16 05:13:58;;;;;;;7.47;5.50;;;;;;;;;;3583118;40;20032;-62
2021/07/16 05:16:23;;;;;;;8.05;5.55;;;;;;;;;;3583170;40;20067;-62
2021/07/16 05:18:49;;;;;;;6.63;5.30;;;;;;;;;;3582545;40;20056;-62
2021/07/16 05:21:14;;;;;;;6.70;4.85;;;;;;;;;;3575516;40;20047;-62
2021/07/16 05:23:41;;;;;;;8.95;5.50;;;;;;;;;;3583644;40;20044;-62
2021/07/16 05:26:06;;;;;;;7.70;5.20;;;;;;;;;;3582635;40;20249;-62
2021/07/16 05:28:32;;;;;;;7.40;5.72;;;;;;;;;;3583564;40;20030;-62
2021/07/16 05:30:57;;;;;;;12.75;7.28;;;;;;;;;;3581793;40;20028;-62
2021/07/16 05:33:23;;;;;;;11.93;6.60;;;;;;;;;;3582614;40;20041;-62
2021/07/16 05:35:49;;;;;;;10.00;7.38;;;;;;;;;;3582917;40;20048;-62
2021/07/16 05:38:15;;;;;;;10.48;7.13;;;;;;;;;;3582413;40;20029;-62
2021/07/16 05:40:40;;;;;;;8.73;7.30;;;;;;;;;;3580830;40;20465;-62
2021/07/16 05:43:09;;;;;;;11.43;7.05;;;;;;;;;;3580779;40;20125;-63
2021/07/16 05:45:36;;;;;;;10.15;7.35;;;;;;;;;;3583083;40;20061;-62
2021/07/16 05:48:06;;;;;;;8.52;7.03;;;;;;;;;;3584119;40;20035;-62
2021/07/16 05:50:32;;;;;;;7.82;7.03;;;;;;;;;;3582676;40;20052;-62
2021/07/16 05:52:57;;;;;;;10.82;7.07;;;;;;;;;;3580892;40;20101;-62
2021/07/16 05:55:23;;;;;;;11.68;6.97;;;;;;;;;;3580575;40;20036;-62
2021/07/16 05:57:48;;;;;;;8.52;6.53;;;;;;;;;;3581880;40;20028;-62
2021/07/16 06:00:15;;;;;;;7.18;6.20;;;;;;;;;;3581692;40;20383;-63
2021/07/16 06:02:40;;;;;;;10.52;6.82;;;;;;;;;;3581184;40;21027;-63
2021/07/16 06:05:07;;;;;;;23.33;7.07;;;;;;;;;;3581999;40;20372;-63
2021/07/16 06:07:32;;;;;;;8.30;6.82;;;;;;;;;;3584169;40;20126;-63
2021/07/16 06:09:58;;;;;;;12.93;6.95;;;;;;;;;;3584154;40;20048;-63
2021/07/16 06:12:23;;;;;;;9.27;7.35;;;;;;;;;;3581584;40;20040;-63
2021/07/16 06:14:54;;;;;;;8.48;6.97;;;;;;;;;;3580521;40;20032;-62
2021/07/16 06:17:24;;;;;;;8.63;6.75;;;;;;;;;;3583019;40;20505;-62
2021/07/16 06:19:50;;;;;;;9.52;7.13;;;;;;;;;;3582638;40;20045;-62
2021/07/16 06:22:15;;;;;;;8.95;6.88;;;;;;;;;;3585689;40;20034;-63
2021/07/16 06:24:41;;;;;;;23.05;7.28;;;;;;;;;;3585392;40;20048;-63
2021/07/16 06:27:08;;;;;;;9.02;7.18;;;;;;;;;;3584757;40;20395;-62
2021/07/16 06:29:33;;;;;;;12.80;7.50;;;;;;;;;;3585118;40;20032;-63
2021/07/16 06:31:59;;;;;;;9.65;7.22;;;;;;;;;;3583923;40;20036;-62
2021/07/16 06:34:25;;;;;;;9.45;6.55;;;;;;;;;;3584547;40;20029;-63
2021/07/16 06:36:50;;;;;;;13.02;7.28;;;;;;;;;;3585562;40;20045;-62
2021/07/16 06:39:16;;;;;;;11.50;6.68;;;;;;;;;;3585989;40;20035;-63
2021/07/16 06:41:41;;;;;;;16.92;7.22;;;;;;;;;;3584701;40;20073;-62
2021/07/16 06:44:08;;;;;;;8.45;6.57;;;;;;;;;;3585234;40;20139;-62
2021/07/16 06:46:34;;;;;;;17.02;6.97;;;;;;;;;;3584256;40;20395;-62
2021/07/16 06:48:59;;;;;;;10.95;6.88;;;;;;;;;;3587115;40;20045;-62
2021/07/16 06:51:25;;;;;;;8.10;6.95;;;;;;;;;;3580397;40;20442;-62
2021/07/16 06:53:50;;;;;;;7.57;5.78;;;;;;;;;;3588233;40;20040;-62
2021/07/16 06:56:16;;;;;;;7.93;6.18;;;;;;;;;;3583753;40;20069;-62
2021/07/16 06:58:42;;;;;;;7.05;6.25;;;;;;;;;;3576786;40;20257;-61
2021/07/16 07:01:07;;;;;;;9.10;6.60;;;;;;;;;;3586016;40;20029;-61
2021/07/16 07:03:33;;;;;;;8.95;6.60;;;;;;;;;;3585651;40;20279;-62
2021/07/16 07:05:59;;;;;;;7.78;6.13;;;;;;;;;;3576304;40;20258;-62
2021/07/16 07:08:25;;;;;;;8.77;5.88;;;;;;;;;;3584510;40;20037;-61
2021/07/16 07:10:50;;;;;;;7.35;6.13;;;;;;;;;;3587176;40;20029;-61
2021/07/16 07:13:16;;;;;;;8.27;5.90;;;;;;;;;;3586359;40;20292;-61
2021/07/16 07:15:42;;;;;;;8.70;5.97;;;;;;;;;;3585655;40;20036;-62
2021/07/16 07:18:08;;;;;;;8.30;6.78;;;;;;;;;;3583238;40;20484;-62
2021/07/16 07:20:36;;;;;;;8.65;6.53;;;;;;;;;;3585901;40;20068;-62
2021/07/16 07:23:04;;;;;;;8.25;6.18;;;;;;;;;;3585103;40;20055;-62
2021/07/16 07:25:30;;;;;;;8.75;6.43;;;;;;;;;;3586292;40;20044;-62
2021/07/16 07:27:57;;;;;;;7.50;5.78;;;;;;;;;;3584381;40;20029;-62
2021/07/16 07:30:23;;;;;;;9.63;6.97;;;;;;;;;;3582550;40;20052;-62
2021/07/16 07:32:48;;;;;;;11.57;6.95;;;;;;;;;;3581073;40;20049;-62
2021/07/16 07:35:14;;;;;;;12.88;7.22;;;;;;;;;;3585216;40;20040;-62
2021/07/16 07:37:40;;;;;;;10.45;7.28;;;;;;;;;;3583355;40;20052;-62
2021/07/16 07:40:08;;;;;;;9.07;6.57;;;;;;;;;;3583380;40;20048;-62
2021/07/16 07:42:34;;;;;;;11.10;6.72;;;;;;;;;;3582334;40;20384;-62
2021/07/16 07:44:59;;;;;;;11.10;6.85;;;;;;;;;;3580909;40;20057;-62
2021/07/16 07:47:29;;;;;;;10.18;7.88;;;;;;;;;;3584552;40;20336;-62
2021/07/16 07:49:55;;;;;;;13.15;7.45;;;;;;;;;;3583477;40;20068;-62
2021/07/16 07:52:21;;;;;;;12.38;7.05;;;;;;;;;;3582069;40;20036;-62
2021/07/16 07:54:47;;;;;;;9.77;7.32;;;;;;;;;;3584623;40;20043;-62
2021/07/16 07:57:12;;;;;;;8.50;6.85;;;;;;;;;;3582954;40;20041;-62
2021/07/16 07:59:38;;;;;;;11.10;6.55;;;;;;;;;;3582762;40;20032;-62
2021/07/16 08:02:03;;;;;;;11.38;7.45;;;;;;;;;;3581338;40;20269;-62
2021/07/16 08:04:29;;;;;;;10.02;7.10;;;;;;;;;;3581238;40;20342;-62
2021/07/16 08:06:54;;;;;;;12.27;6.45;;;;;;;;;;3583981;40;20032;-62
2021/07/16 08:09:20;;;;;;;9.05;6.95;;;;;;;;;;3584668;40;20036;-62
2021/07/16 08:11:45;;;;;;;13.77;6.38;;;;;;;;;;3585170;40;20033;-62
2021/07/16 08:14:11;;;;;;;10.73;6.75;;;;;;;;;;3581964;40;20064;-62
2021/07/16 08:16:36;;;;;;;7.45;6.38;;;;;;;;;;3584900;40;20069;-62
2021/07/16 08:19:02;;;;;;;10.63;6.63;;;;;;;;;;3584561;40;20057;-61
2021/07/16 08:21:28;;;;;;;11.15;7.47;;;;;;;;;;3581706;40;20319;-62
2021/07/16 08:23:54;;;;;;;8.52;6.80;;;;;;;;;;3581974;40;20045;-62
2021/07/16 08:26:19;;;;;;;9.07;6.68;;;;;;;;;;3581652;40;20133;-62
2021/07/16 08:28:46;;;;;;;10.73;7.55;;;;;;;;;;3583244;40;20432;-61
2021/07/16 08:31:11;;;;;;;12.20;7.68;;;;;;;;;;3581261;40;20037;-61
2021/07/16 08:33:37;;;;;;;10.52;7.60;;;;;;;;;;3582857;40;20292;-61
2021/07/16 08:36:03;;;;;;;10.38;7.95;;;;;;;;;;3581501;40;20029;-61
2021/07/16 08:38:29;;;;;;;13.85;9.05;;;;;;;;;;3583004;40;20029;-62
2021/07/16 08:40:54;;;;;;;10.95;7.88;;;;;;;;;;3583103;40;20039;-62
2021/07/16 08:43:22;;;;;;;9.95;8.45;;;;;;;;;;3583357;40;20094;-62
2021/07/16 08:45:51;;;;;;;11.20;8.77;;;;;;;;;;3582693;40;20044;-62
2021/07/16 08:48:16;;;;;;;14.05;9.32;;;;;;;;;;3582485;40;20053;-62
2021/07/16 08:50:42;;;;;;;14.57;9.85;;;;;;;;;;3584052;40;20028;-62
2021/07/16 08:53:08;;;;;;;11.25;9.45;;;;;;;;;;3585107;40;20346;-62
2021/07/16 08:55:37;;;;;;;15.98;10.35;;;;;;;;;;3583776;40;20032;-62
2021/07/16 08:58:04;;;;;;;11.52;10.07;;;;;;;;;;3582943;40;20048;-62
2021/07/16 09:00:30;;;;;;;12.07;9.63;;;;;;;;;;3580964;40;20033;-62
2021/07/16 09:02:59;;;;;;;12.52;10.40;;;;;;;;;;3583148;40;20043;-62
2021/07/16 09:05:37;;;;;;;11.50;10.10;;;;;;;;;;3582542;40;20142;-62
2021/07/16 09:08:04;;;;;;;11.43;10.02;;;;;;;;;;3583298;40;20029;-62
2021/07/16 09:10:30;;;;;;;11.75;10.55;;;;;;;;;;3581454;40;20042;-62
2021/07/16 09:13:00;;;;;;;10.52;9.43;;;;;;;;;;3583348;40;20045;-62
2021/07/16 09:15:27;;;;;;;17.77;10.05;;;;;;;;;;3583815;40;20119;-62
2021/07/16 09:18:15;;;;;;;17.38;9.85;;;;;;;;;;3582955;40;20036;-61
2021/07/16 09:20:41;;;;;;;13.93;9.52;;;;;;;;;;3581078;40;20043;-61
2021/07/16 09:23:08;;;;;;;13.93;10.90;;;;;;;;;;3581326;40;20040;-61
2021/07/16 09:25:34;;;;;;;13.38;9.77;;;;;;;;;;3581849;40;20044;-63
2021/07/16 09:27:59;;;;;;;17.05;9.75;;;;;;;;;;3583702;40;20118;-61
2021/07/16 09:30:27;;;;;;;10.95;9.73;;;;;;;;;;3584115;40;20330;-61
2021/07/16 09:32:54;;;;;;;12.80;9.45;;;;;;;;;;3580576;40;20335;-61
2021/07/16 09:35:32;;;;;;;13.65;9.52;;;;;;;;;;3581222;40;20031;-62
2021/07/16 09:38:05;;;;;;;10.27;8.63;;;;;;;;;;3581948;40;20071;-61
2021/07/16 09:40:39;;;;;;;11.40;9.00;;;;;;;;;;3581808;40;20037;-62
2021/07/16 09:43:06;;;;;;;13.30;9.68;;;;;;;;;;3581599;40;20120;-61
2021/07/16 09:45:33;;;;;;;14.60;9.48;;;;;;;;;;3582070;40;20404;-61
2021/07/16 09:48:23;;;;;;;9.73;8.70;;;;;;;;;;3582123;40;20068;-61
2021/07/16 09:50:50;;;;;;;;;;;;;;;;;;3583000;40;20039;-61
2021/07/16 09:53:30;;;;;;;10.60;9.38;;;;;;;;;;3580880;40;20463;-61
2021/07/16 09:56:19;;;;;;;12.25;9.77;;;;;;;;;;3583067;40;20059;-61
2021/07/16 09:58:45;;;;;;;12.77;9.45;;;;;;;;;;3580886;40;20133;-62
2021/07/16 10:01:11;;;;;;;12.63;9.43;;;;;;;;;;3582547;40;20452;-61
2021/07/16 10:03:38;;;;;;;11.68;9.68;;;;;;;;;;3581178;40;20050;-62
2021/07/16 10:06:04;;;;;;;12.68;10.52;;;;;;;;;;3582960;40;20041;-61
2021/07/16 10:08:35;;;;;;;10.88;9.35;;;;;;;;;;3583224;40;20044;-62
2021/07/16 10:11:04;;;;;;;;;;;;;;;;;;3584225;40;20028;-62
2021/07/16 10:13:32;;;;;;;10.50;9.23;;;;;;;;;;3583448;40;20071;-62
2021/07/16 10:15:58;;;;;;;13.93;10.35;;;;;;;;;;3580887;40;20033;-62
2021/07/16 10:18:25;;;;;;;12.23;9.88;;;;;;;;;;3583068;40;20071;-62
2021/07/16 10:20:50;;;;;;;13.60;10.05;;;;;;;;;;3582593;40;20054;-62
2021/07/16 10:23:16;;;;;;;11.10;9.50;;;;;;;;;;3582325;40;20044;-62
2021/07/16 10:25:42;;;;;;;11.05;8.82;;;;;;;;;;3575303;40;20296;-61
2021/07/16 10:28:08;;;;;;;10.45;8.75;;;;;;;;;;3582945;40;20039;-61
2021/07/16 10:30:36;;;;;;;9.85;8.85;;;;;;;;;;3581838;40;20037;-61
2021/07/16 10:33:01;;;;;;;11.32;8.95;;;;;;;;;;3582935;40;20036;-62
2021/07/16 10:35:36;;;;;;;10.98;8.95;;;;;;;;;;3581119;40;20357;-62
2021/07/16 10:38:05;;;;;;;18.63;9.45;;;;;;;;;;3582004;40;20036;-61
2021/07/16 10:40:45;;;;;;;14.10;8.70;;;;;;;;;;3583004;40;20045;-61
2021/07/16 10:43:23;;;;;;;17.05;9.60;;;;;;;;;;3583610;40;20033;-61
2021/07/16 10:45:49;;;;;;;10.25;8.13;;;;;;;;;;3581204;40;20041;-61
2021/07/16 10:48:18;;;;;;;9.05;8.10;;;;;;;;;;3579320;40;20378;-61
2021/07/16 10:50:49;;;;;;;10.48;8.32;;;;;;;;;;3582433;40;20025;-61
2021/07/16 10:53:17;;;;;;;11.02;9.40;;;;;;;;;;3581899;40;20036;-61
2021/07/16 10:55:42;;;;;;;13.02;8.85;;;;;;;;;;3584038;40;20025;-62
2021/07/16 10:58:27;;;;;;;12.13;7.63;;;;;;;;;;3581539;40;20043;-62
2021/07/16 11:00:55;;;;;;;9.20;8.18;;;;;;;;;;3581257;40;20064;-62
2021/07/16 11:03:40;;;;;;;11.15;7.72;;;;;;;;;;3582701;40;20110;-61
2021/07/16 11:06:07;;;;;;;11.35;8.05;;;;;;;;;;3583553;40;20028;-62
2021/07/16 11:08:37;;;;;;;8.82;7.85;;;;;;;;;;3581560;40;20315;-61
2021/07/16 11:11:06;;;;;;;10.77;7.93;;;;;;;;;;3573853;40;20364;-61
2021/07/16 11:13:53;;;;;;;11.50;7.95;;;;;;;;;;3585525;40;20332;-61
2021/07/16 11:16:25;;;;;;;15.82;8.18;;;;;;;;;;3584762;40;20083;-61
2021/07/16 11:18:55;;;;;;;9.57;8.55;;;;;;;;;;3583150;40;20472;-61
2021/07/16 11:21:39;;;;;;;11.68;8.02;;;;;;;;;;3574294;40;20045;-61
2021/07/16 11:24:24;;;;;;;8.15;7.32;;;;;;;;;;3581716;40;20063;-61
2021/07/16 11:27:05;;;;;;;13.40;7.75;;;;;;;;;;3583226;40;20065;-61
2021/07/16 11:29:34;;;;;;;13.68;7.00;;;;;;;;;;3583602;40;20036;-62
2021/07/16 11:32:20;;;;;;;9.52;6.90;;;;;;;;;;3582218;40;20058;-61
2021/07/16 11:34:52;;;;;;;10.57;7.63;;;;;;;;;;3574819;40;20034;-62
2021/07/16 11:37:34;;;;;;;6.97;6.22;;;;;;;;;;3582339;40;20029;-62
2021/07/16 11:40:07;;;;;;;8.02;7.00;;;;;;;;;;3582734;40;20045;-61
2021/07/16 11:42:35;;;;;;;7.93;6.50;;;;;;;;;;3582606;40;20032;-61
2021/07/16 11:45:01;;;;;;;7.43;6.38;;;;;;;;;;3582787;40;20395;-61
2021/07/16 11:47:31;;;;;;;7.88;6.50;;;;;;;;;;3583210;40;20029;-61
2021/07/16 11:50:01;;;;;;;9.15;6.70;;;;;;;;;;3584218;40;20040;-62
2021/07/16 11:52:30;;;;;;;8.95;6.25;;;;;;;;;;3582848;40;20032;-62
2021/07/16 11:55:13;;;;;;;7.25;6.20;;;;;;;;;;3582577;40;20036;-62
2021/07/16 11:57:51;;;;;;;8.57;6.53;;;;;;;;;;3583512;40;20036;-62
2021/07/16 12:00:18;;;;;;;8.80;6.47;;;;;;;;;;3583792;40;20053;-61
2021/07/16 12:02:44;;;;;;;9.90;6.13;;;;;;;;;;3583150;40;20051;-61
2021/07/16 12:05:11;;;;;;;7.28;5.68;;;;;;;;;;3580963;40;20069;-61
2021/07/16 12:07:41;;;;;;;5.50;4.93;;;;;;;;;;3584308;40;20077;-61
2021/07/16 12:10:11;;;;;;;6.00;4.90;;;;;;;;;;3584062;40;20028;-61
2021/07/16 12:12:38;;;;;;;6.85;5.05;;;;;;;;;;3583699;40;20059;-61
2021/07/16 12:15:08;;;;;;;6.20;5.43;;;;;;;;;;3582072;40;20361;-61
2021/07/16 12:17:38;;;;;;;6.90;5.22;;;;;;;;;;3581554;40;20040;-61
2021/07/16 12:20:07;;;;;;;5.75;5.07;;;;;;;;;;3583168;40;20036;-61
2021/07/16 12:22:34;;;;;;;6.20;5.60;;;;;;;;;;3573855;40;20065;-62
2021/07/16 12:25:04;;;;;;;6.50;5.18;;;;;;;;;;3583588;40;20286;-61
2021/07/16 12:27:29;;;;;;;;;;;;;;;;;;3582609;40;20031;-61
2021/07/16 12:29:57;;;;;;;7.00;5.25;;;;;;;;;;3582287;40;19977;-61
2021/07/16 12:32:34;;;;;;;7.20;5.43;;;;;;;;;;3577395;40;20133;-61
2021/07/16 12:35:00;;;;;;;7.95;5.53;;;;;;;;;;3573272;40;20045;-61
2021/07/16 12:37:36;;;;;;;5.68;5.03;;;;;;;;;;3582550;40;20126;-61
2021/07/16 12:40:05;;;;;;;10.30;5.10;;;;;;;;;;3583501;40;20076;-61
2021/07/16 12:42:30;;;;;;;6.03;4.78;;;;;;;;;;3583107;40;20639;-61
2021/07/16 12:45:11;;;;;;;7.25;5.25;;;;;;;;;;3576493;40;20122;-61
2021/07/16 12:47:53;;;;;;;9.13;5.50;;;;;;;;;;3583295;40;20114;-61
2021/07/16 12:50:21;;;;;;;7.28;4.97;;;;;;;;;;3582855;40;20041;-61
2021/07/16 12:53:00;;;;;;;9.00;4.75;;;;;;;;;;3584929;40;20121;-61
2021/07/16 12:55:31;;;;;;;6.05;4.85;;;;;;;;;;3581918;40;20631;-61
2021/07/16 12:58:04;;;;;;;5.43;4.40;;;;;;;;;;3582495;40;20041;-61
2021/07/16 13:00:30;;;;;;;7.10;5.07;;;;;;;;;;3580954;40;20025;-62
2021/07/16 13:03:42;;;;;;;6.75;5.32;;;;;;;;;;3580567;40;20044;-62
2021/07/16 13:06:26;;;;;;;5.75;4.97;;;;;;;;;;3546100;40;20027;-62
2021/07/16 13:09:16;;;;;;;9.73;5.57;;;;;;;;;;3581635;40;20061;-62
2021/07/16 13:11:42;;;;;;;6.05;5.10;;;;;;;;;;3583092;40;20090;-62
2021/07/16 13:14:28;;;;;;;8.30;5.38;;;;;;;;;;3582595;40;20047;-62
2021/07/16 13:17:24;;;;;;;9.48;5.68;;;;;;;;;;3582380;40;20029;-62
2021/07/16 13:19:56;;;;;;;9.23;4.82;;;;;;;;;;3582331;40;20132;-62
2021/07/16 13:22:23;;;;;;;7.28;5.13;;;;;;;;;;3580944;40;20052;-62
2021/07/16 13:24:48;;;;;;;5.28;4.70;;;;;;;;;;3582033;40;20037;-62
2021/07/16 13:27:15;;;;;;;6.45;4.35;;;;;;;;;;3581851;40;20384;-62
2021/07/16 13:29:40;;;;;;;6.28;5.05;;;;;;;;;;3582710;40;20029;-62
2021/07/16 13:32:07;;;;;;;5.93;5.18;;;;;;;;;;3583671;40;20036;-62
2021/07/16 13:34:32;;;;;;;5.50;4.68;;;;;;;;;;3583872;40;20029;-62
2021/07/16 13:36:57;;;;;;;5.18;4.45;;;;;;;;;;3582482;40;20379;-62
2021/07/16 13:39:23;;;;;;;6.72;4.78;;;;;;;;;;3575042;40;20052;-62
2021/07/16 13:41:48;;;;;;;10.38;4.78;;;;;;;;;;3581842;40;20060;-62
2021/07/16 13:44:14;;;;;;;6.60;4.80;;;;;;;;;;3581762;40;20044;-62
2021/07/16 13:46:39;;;;;;;5.40;3.90;;;;;;;;;;3584252;40;20153;-62
2021/07/16 13:49:05;;;;;;;6.47;4.38;;;;;;;;;;3574275;40;20106;-62
2021/07/16 13:51:32;;;;;;;5.68;4.45;;;;;;;;;;3582942;40;20055;-62
2021/07/16 13:53:58;;;;;;;9.30;4.95;;;;;;;;;;3582330;40;20018;-62
2021/07/16 13:56:23;;;;;;;6.85;4.18;;;;;;;;;;3582795;40;20378;-62
2021/07/16 13:58:49;;;;;;;6.22;4.65;;;;;;;;;;3575502;40;20044;-62
2021/07/16 14:01:14;;;;;;;5.65;4.82;;;;;;;;;;3582302;40;20509;-62
2021/07/16 14:03:40;;;;;;;4.60;4.00;;;;;;;;;;3582838;40;20055;-62
2021/07/16 14:06:05;;;;;;;6.28;4.70;;;;;;;;;;3583032;40;20084;-62
2021/07/16 14:08:31;;;;;;;6.50;4.70;;;;;;;;;;3583141;40;20060;-62
2021/07/16 14:10:56;;;;;;;9.30;4.68;;;;;;;;;;3583720;40;20120;-62
2021/07/16 14:13:22;;;;;;;12.95;4.82;;;;;;;;;;3581353;40;20069;-61
2021/07/16 14:15:47;;;;;;;6.60;4.90;;;;;;;;;;3583486;40;20033;-62
2021/07/16 14:18:12;;;;;;;6.68;4.72;;;;;;;;;;3582048;40;20530;-62
2021/07/16 14:20:38;;;;;;;5.63;4.43;;;;;;;;;;3582408;40;20064;-63
2021/07/16 14:23:03;;;;;;;5.38;4.22;;;;;;;;;;3583316;40;20037;-63
2021/07/16 14:25:29;;;;;;;5.82;4.57;;;;;;;;;;3580585;40;20055;-62
2021/07/16 14:27:54;;;;;;;5.15;4.32;;;;;;;;;;3582575;40;20300;-62
2021/07/16 14:30:20;;;;;;;6.93;4.50;;;;;;;;;;3583452;40;20036;-62
2021/07/16 14:32:46;;;;;;;5.35;4.10;;;;;;;;;;3583203;40;20276;-62
2021/07/16 14:35:12;;;;;;;6.25;4.50;;;;;;;;;;3582062;40;20040;-63
2021/07/16 14:37:38;;;;;;;6.45;4.60;;;;;;;;;;3582600;40;20055;-62
2021/07/16 14:40:08;;;;;;;6.38;4.32;;;;;;;;;;3582437;40;20036;-62
2021/07/16 14:42:34;;;;;;;6.15;4.18;;;;;;;;;;3583013;40;20319;-62